createdAt,value
2017-10-15T00:00:03.914Z,16.1
2017-10-15T00:01:03.940Z,16.16
2017-10-15T00:02:03.963Z,16.13
2017-10-15T00:03:04.297Z,16.05
2017-10-15T00:04:04.053Z,16.04
2017-10-15T00:05:04.370Z,16.09
2017-10-15T00:06:04.048Z,16.1
2017-10-15T00:07:04.062Z,16.15
2017-10-15T00:08:04.088Z,16.08
2017-10-15T00:09:04.111Z,15.97
2017-10-15T00:10:04.216Z,15.98
2017-10-15T00:11:04.161Z,15.97
2017-10-15T00:12:04.184Z,16.05
2017-10-15T00:13:04.202Z,16.15
2017-10-15T00:14:04.305Z,16.08
2017-10-15T00:15:04.579Z,16.02
2017-10-15T00:16:04.271Z,16.05
2017-10-15T00:17:04.281Z,16.12
2017-10-15T00:18:04.645Z,16.02
2017-10-15T00:19:04.326Z,15.97
2017-10-15T00:20:04.802Z,15.97
2017-10-15T00:21:04.468Z,15.92
2017-10-15T00:22:04.393Z,15.95
2017-10-15T00:23:04.438Z,15.86
2017-10-15T00:24:04.495Z,15.84
2017-10-15T00:25:04.614Z,15.76
2017-10-15T00:26:04.519Z,15.7
2017-10-15T00:27:04.540Z,15.7
2017-10-15T00:28:04.525Z,15.77
2017-10-15T00:29:04.546Z,15.84
2017-10-15T00:30:04.604Z,15.82
2017-10-15T00:31:04.616Z,15.83
2017-10-15T00:32:04.997Z,15.83
2017-10-15T00:33:04.713Z,15.79
2017-10-15T00:34:04.651Z,15.76
2017-10-15T00:35:04.670Z,15.72
2017-10-15T00:36:04.702Z,15.73
2017-10-15T00:37:04.888Z,15.76
2017-10-15T00:38:04.858Z,15.83
2017-10-15T00:39:04.768Z,15.86
2017-10-15T00:40:04.817Z,15.92
2017-10-15T00:41:04.805Z,15.86
2017-10-15T00:42:04.825Z,15.86
2017-10-15T00:43:04.845Z,15.76
2017-10-15T00:44:05.337Z,15.82
2017-10-15T00:45:04.905Z,15.72
2017-10-15T00:46:04.910Z,15.76
2017-10-15T00:47:04.932Z,15.73
2017-10-15T00:48:05.036Z,15.77
2017-10-15T00:49:04.975Z,15.77
2017-10-15T00:50:05.005Z,15.75
2017-10-15T00:51:05.063Z,15.75
2017-10-15T00:52:05.365Z,15.86
2017-10-15T00:53:05.067Z,15.79
2017-10-15T00:54:05.090Z,15.76
2017-10-15T00:55:05.171Z,15.68
2017-10-15T00:56:05.125Z,15.7
2017-10-15T00:57:05.144Z,15.58
2017-10-15T00:58:05.246Z,15.58
2017-10-15T00:59:05.198Z,15.61
2017-10-15T01:00:05.220Z,15.64
2017-10-15T01:01:05.570Z,15.55
2017-10-15T01:02:05.258Z,15.65
2017-10-15T01:03:05.280Z,15.76
2017-10-15T01:04:05.298Z,15.7
2017-10-15T01:05:05.346Z,15.55
2017-10-15T01:06:05.345Z,15.62
2017-10-15T01:07:05.376Z,15.59
2017-10-15T01:08:05.465Z,15.57
2017-10-15T01:09:05.408Z,15.52
2017-10-15T01:10:05.477Z,15.67
2017-10-15T01:11:05.452Z,15.67
2017-10-15T01:12:05.478Z,15.62
2017-10-15T01:13:05.499Z,15.47
2017-10-15T01:14:05.519Z,15.36
2017-10-15T01:15:05.540Z,15.39
2017-10-15T01:16:05.568Z,15.36
2017-10-15T01:17:05.914Z,15.39
2017-10-15T01:18:05.952Z,15.35
2017-10-15T01:19:05.625Z,15.44
2017-10-15T01:20:05.841Z,15.37
2017-10-15T01:21:05.667Z,15.46
2017-10-15T01:22:05.705Z,15.49
2017-10-15T01:23:05.708Z,15.54
2017-10-15T01:24:06.059Z,15.54
2017-10-15T01:25:05.754Z,15.51
2017-10-15T01:26:05.773Z,15.57
2017-10-15T01:27:05.845Z,15.62
2017-10-15T01:28:05.817Z,15.75
2017-10-15T01:29:06.167Z,15.65
2017-10-15T01:30:05.874Z,15.55
2017-10-15T01:31:05.956Z,15.55
2017-10-15T01:32:07.006Z,15.58
2017-10-15T01:33:05.935Z,15.59
2017-10-15T01:34:05.955Z,15.54
2017-10-15T01:35:05.967Z,15.55
2017-10-15T01:36:05.990Z,15.55
2017-10-15T01:37:06.013Z,15.47
2017-10-15T01:38:06.048Z,15.43
2017-10-15T01:39:06.075Z,15.43
2017-10-15T01:40:06.078Z,15.4
2017-10-15T01:41:06.129Z,15.33
2017-10-15T01:42:06.591Z,15.33
2017-10-15T01:43:06.473Z,15.29
2017-10-15T01:44:06.159Z,15.33
2017-10-15T01:45:06.205Z,15.35
2017-10-15T01:46:06.534Z,15.39
2017-10-15T01:47:06.232Z,15.42
2017-10-15T01:48:06.274Z,15.36
2017-10-15T01:49:06.618Z,15.29
2017-10-15T01:50:06.294Z,15.33
2017-10-15T01:51:06.305Z,15.25
2017-10-15T01:52:06.362Z,15.22
2017-10-15T01:53:06.461Z,15.18
2017-10-15T01:54:06.699Z,15.09
2017-10-15T01:55:06.392Z,14.92
2017-10-15T01:56:06.420Z,14.94
2017-10-15T01:57:06.491Z,14.91
2017-10-15T01:58:06.455Z,14.96
2017-10-15T01:59:06.479Z,15.06
2017-10-15T02:00:06.824Z,15.06
2017-10-15T02:01:06.528Z,15.03
2017-10-15T02:02:06.990Z,15.04
2017-10-15T02:03:06.564Z,15.07
2017-10-15T02:04:06.584Z,15.07
2017-10-15T02:05:07.118Z,15.11
2017-10-15T02:06:06.628Z,15.02
2017-10-15T02:07:06.647Z,14.96
2017-10-15T02:08:06.676Z,14.85
2017-10-15T02:09:06.689Z,14.92
2017-10-15T02:10:06.712Z,14.91
2017-10-15T02:11:06.734Z,14.89
2017-10-15T02:12:06.752Z,14.96
2017-10-15T02:13:06.899Z,15.04
2017-10-15T02:14:06.792Z,15.06
2017-10-15T02:15:06.817Z,15.03
2017-10-15T02:16:06.894Z,14.92
2017-10-15T02:17:06.860Z,14.97
2017-10-15T02:18:08.957Z,14.97
2017-10-15T02:19:07.510Z,15.04
2017-10-15T02:20:07.010Z,15
2017-10-15T02:21:06.946Z,15.09
2017-10-15T02:22:06.960Z,15.07
2017-10-15T02:23:06.992Z,15.06
2017-10-15T02:24:07.121Z,15.11
2017-10-15T02:25:07.403Z,15.14
2017-10-15T02:26:07.126Z,15.14
2017-10-15T02:27:07.062Z,15.11
2017-10-15T02:28:07.086Z,15.03
2017-10-15T02:29:07.105Z,14.85
2017-10-15T02:30:07.130Z,14.89
2017-10-15T02:31:07.147Z,14.88
2017-10-15T02:32:07.172Z,14.97
2017-10-15T02:33:07.190Z,14.96
2017-10-15T02:34:07.360Z,14.84
2017-10-15T02:35:07.228Z,14.91
2017-10-15T02:36:07.262Z,14.91
2017-10-15T02:37:07.280Z,14.85
2017-10-15T02:38:07.301Z,15
2017-10-15T02:39:07.318Z,15.02
2017-10-15T02:40:07.336Z,14.91
2017-10-15T02:41:07.356Z,14.91
2017-10-15T02:42:07.382Z,14.92
2017-10-15T02:43:07.398Z,14.94
2017-10-15T02:44:07.424Z,14.82
2017-10-15T02:45:07.652Z,14.72
2017-10-15T02:46:07.469Z,14.62
2017-10-15T02:47:07.857Z,14.69
2017-10-15T02:48:07.507Z,14.73
2017-10-15T02:49:07.669Z,14.77
2017-10-15T02:50:07.549Z,14.82
2017-10-15T02:51:07.569Z,14.82
2017-10-15T02:52:07.588Z,14.84
2017-10-15T02:53:07.625Z,14.77
2017-10-15T02:54:07.630Z,14.73
2017-10-15T02:55:07.649Z,14.78
2017-10-15T02:56:07.796Z,14.69
2017-10-15T02:57:07.701Z,14.73
2017-10-15T02:58:07.709Z,14.68
2017-10-15T02:59:07.732Z,14.6
2017-10-15T03:00:07.886Z,14.53
2017-10-15T03:01:07.779Z,14.6
2017-10-15T03:02:07.843Z,14.51
2017-10-15T03:03:07.813Z,14.55
2017-10-15T03:04:07.835Z,14.45
2017-10-15T03:05:07.860Z,14.43
2017-10-15T03:06:07.896Z,14.51
2017-10-15T03:07:07.905Z,14.5
2017-10-15T03:08:08.247Z,14.53
2017-10-15T03:09:08.267Z,14.6
2017-10-15T03:10:08.283Z,14.48
2017-10-15T03:11:07.987Z,14.58
2017-10-15T03:12:08.137Z,14.63
2017-10-15T03:13:08.022Z,14.6
2017-10-15T03:14:08.042Z,14.58
2017-10-15T03:15:08.084Z,14.5
2017-10-15T03:16:08.079Z,14.47
2017-10-15T03:17:08.110Z,14.5
2017-10-15T03:18:08.428Z,14.51
2017-10-15T03:19:08.142Z,14.51
2017-10-15T03:20:08.507Z,14.55
2017-10-15T03:21:08.191Z,14.5
2017-10-15T03:22:08.205Z,14.51
2017-10-15T03:23:08.281Z,14.5
2017-10-15T03:24:08.247Z,14.53
2017-10-15T03:25:08.600Z,14.5
2017-10-15T03:26:08.291Z,14.54
2017-10-15T03:27:08.634Z,14.47
2017-10-15T03:28:08.417Z,14.53
2017-10-15T03:29:08.352Z,14.5
2017-10-15T03:30:08.377Z,14.58
2017-10-15T03:31:08.722Z,14.6
2017-10-15T03:32:08.424Z,14.58
2017-10-15T03:33:08.484Z,14.55
2017-10-15T03:34:08.643Z,14.59
2017-10-15T03:35:08.859Z,14.6
2017-10-15T03:36:08.496Z,14.58
2017-10-15T03:37:08.513Z,14.51
2017-10-15T03:38:08.533Z,14.54
2017-10-15T03:39:08.604Z,14.58
2017-10-15T03:40:08.582Z,14.48
2017-10-15T03:41:08.599Z,14.53
2017-10-15T03:42:08.615Z,14.37
2017-10-15T03:43:08.639Z,14.33
2017-10-15T03:44:08.658Z,14.37
2017-10-15T03:45:08.689Z,14.3
2017-10-15T03:46:08.709Z,14.22
2017-10-15T03:47:09.040Z,14.23
2017-10-15T03:48:08.741Z,14.28
2017-10-15T03:49:08.817Z,14.25
2017-10-15T03:50:08.909Z,14.3
2017-10-15T03:51:08.810Z,14.33
2017-10-15T03:52:08.822Z,14.29
2017-10-15T03:53:08.853Z,14.33
2017-10-15T03:54:09.195Z,14.29
2017-10-15T03:55:09.005Z,14.28
2017-10-15T03:56:09.164Z,14.2
2017-10-15T03:57:08.928Z,14.29
2017-10-15T03:58:08.941Z,14.23
2017-10-15T03:59:08.963Z,14.3
2017-10-15T04:00:09.193Z,14.15
2017-10-15T04:01:09.327Z,14.14
2017-10-15T04:02:09.026Z,14.17
2017-10-15T04:03:09.372Z,14.11
2017-10-15T04:04:09.070Z,14.1
2017-10-15T04:05:09.092Z,14.15
2017-10-15T04:06:09.465Z,14.05
2017-10-15T04:07:09.504Z,14.05
2017-10-15T04:08:09.267Z,13.96
2017-10-15T04:09:09.169Z,14
2017-10-15T04:10:09.475Z,13.87
2017-10-15T04:11:09.220Z,13.9
2017-10-15T04:12:09.229Z,13.92
2017-10-15T04:13:09.256Z,13.81
2017-10-15T04:14:09.267Z,13.83
2017-10-15T04:15:09.292Z,13.72
2017-10-15T04:16:09.327Z,13.68
2017-10-15T04:17:09.336Z,13.65
2017-10-15T04:18:09.353Z,13.57
2017-10-15T04:19:09.570Z,13.47
2017-10-15T04:20:09.398Z,13.59
2017-10-15T04:21:09.551Z,13.67
2017-10-15T04:22:09.436Z,13.63
2017-10-15T04:23:09.507Z,13.56
2017-10-15T04:24:09.481Z,13.49
2017-10-15T04:25:09.498Z,13.52
2017-10-15T04:26:09.532Z,13.42
2017-10-15T04:27:09.540Z,13.46
2017-10-15T04:28:09.559Z,13.62
2017-10-15T04:29:09.579Z,13.68
2017-10-15T04:30:10.025Z,13.7
2017-10-15T04:31:09.910Z,13.68
2017-10-15T04:32:09.649Z,13.79
2017-10-15T04:33:09.661Z,13.7
2017-10-15T04:34:09.685Z,13.72
2017-10-15T04:35:09.703Z,13.71
2017-10-15T04:36:09.714Z,13.74
2017-10-15T04:37:09.735Z,13.75
2017-10-15T04:38:09.757Z,13.77
2017-10-15T04:39:09.824Z,13.93
2017-10-15T04:40:09.811Z,13.83
2017-10-15T04:41:09.830Z,13.71
2017-10-15T04:42:10.334Z,13.57
2017-10-15T04:43:10.183Z,13.72
2017-10-15T04:44:09.874Z,13.72
2017-10-15T04:45:09.905Z,13.86
2017-10-15T04:46:09.923Z,13.79
2017-10-15T04:47:09.936Z,13.79
2017-10-15T04:48:09.964Z,13.83
2017-10-15T04:49:10.309Z,13.81
2017-10-15T04:50:10.002Z,13.79
2017-10-15T04:51:10.021Z,13.72
2017-10-15T04:52:10.044Z,13.9
2017-10-15T04:53:10.392Z,13.92
2017-10-15T04:54:10.091Z,13.9
2017-10-15T04:55:10.099Z,14
2017-10-15T04:56:10.183Z,13.96
2017-10-15T04:57:10.153Z,13.9
2017-10-15T04:58:10.171Z,13.93
2017-10-15T04:59:10.181Z,13.87
2017-10-15T05:00:10.204Z,13.83
2017-10-15T05:01:10.230Z,13.77
2017-10-15T05:02:10.242Z,13.77
2017-10-15T05:03:10.264Z,13.86
2017-10-15T05:04:10.310Z,13.79
2017-10-15T05:05:10.555Z,13.78
2017-10-15T05:06:10.323Z,13.81
2017-10-15T05:07:10.342Z,13.74
2017-10-15T05:08:10.368Z,13.7
2017-10-15T05:09:10.391Z,13.78
2017-10-15T05:10:10.404Z,13.83
2017-10-15T05:11:10.472Z,13.83
2017-10-15T05:12:10.794Z,13.81
2017-10-15T05:13:10.469Z,13.72
2017-10-15T05:14:10.483Z,13.68
2017-10-15T05:15:10.994Z,13.74
2017-10-15T05:16:10.531Z,13.77
2017-10-15T05:17:10.556Z,13.71
2017-10-15T05:18:10.565Z,13.62
2017-10-15T05:19:10.587Z,13.62
2017-10-15T05:20:10.612Z,13.62
2017-10-15T05:21:10.626Z,13.37
2017-10-15T05:22:10.645Z,13.44
2017-10-15T05:23:10.674Z,13.37
2017-10-15T05:24:10.692Z,13.39
2017-10-15T05:25:10.716Z,13.41
2017-10-15T05:26:10.729Z,13.44
2017-10-15T05:27:10.746Z,13.47
2017-10-15T05:28:10.824Z,13.41
2017-10-15T05:29:11.119Z,13.49
2017-10-15T05:30:10.813Z,13.49
2017-10-15T05:31:10.828Z,13.49
2017-10-15T05:32:11.191Z,13.57
2017-10-15T05:33:10.873Z,13.68
2017-10-15T05:34:10.888Z,13.62
2017-10-15T05:35:10.910Z,13.65
2017-10-15T05:36:10.930Z,13.67
2017-10-15T05:37:10.951Z,13.72
2017-10-15T05:38:10.967Z,13.75
2017-10-15T05:39:10.989Z,13.72
2017-10-15T05:40:11.010Z,13.68
2017-10-15T05:41:11.411Z,13.71
2017-10-15T05:42:11.055Z,13.72
2017-10-15T05:43:11.331Z,13.7
2017-10-15T05:44:11.087Z,13.65
2017-10-15T05:45:11.116Z,13.68
2017-10-15T05:46:11.181Z,13.67
2017-10-15T05:47:11.164Z,13.68
2017-10-15T05:48:11.172Z,13.7
2017-10-15T05:49:11.193Z,13.78
2017-10-15T05:50:11.217Z,13.7
2017-10-15T05:51:11.232Z,13.75
2017-10-15T05:52:11.255Z,13.75
2017-10-15T05:53:11.278Z,13.83
2017-10-15T05:54:11.615Z,13.81
2017-10-15T05:55:11.392Z,13.78
2017-10-15T05:56:11.343Z,13.79
2017-10-15T05:57:11.372Z,13.74
2017-10-15T05:58:11.377Z,13.68
2017-10-15T05:59:11.727Z,13.71
2017-10-15T06:00:11.441Z,13.74
2017-10-15T06:01:11.440Z,13.67
2017-10-15T06:02:11.456Z,13.59
2017-10-15T06:03:11.473Z,13.57
2017-10-15T06:04:11.500Z,13.57
2017-10-15T06:05:11.525Z,13.62
2017-10-15T06:06:11.542Z,13.67
2017-10-15T06:07:11.564Z,13.7
2017-10-15T06:08:11.580Z,13.75
2017-10-15T06:09:11.598Z,13.83
2017-10-15T06:10:11.617Z,13.83
2017-10-15T06:11:11.638Z,13.72
2017-10-15T06:12:11.665Z,13.7
2017-10-15T06:13:11.692Z,13.68
2017-10-15T06:14:11.697Z,13.75
2017-10-15T06:15:11.728Z,13.72
2017-10-15T06:16:11.739Z,13.79
2017-10-15T06:17:11.759Z,13.78
2017-10-15T06:18:11.783Z,13.85
2017-10-15T06:19:11.847Z,13.77
2017-10-15T06:20:11.866Z,13.59
2017-10-15T06:21:11.844Z,13.67
2017-10-15T06:22:11.868Z,13.75
2017-10-15T06:23:11.876Z,13.83
2017-10-15T06:24:11.903Z,13.81
2017-10-15T06:25:11.925Z,13.78
2017-10-15T06:26:11.937Z,13.85
2017-10-15T06:27:11.966Z,13.78
2017-10-15T06:28:11.981Z,13.93
2017-10-15T06:29:12.017Z,13.96
2017-10-15T06:30:12.347Z,13.99
2017-10-15T06:31:12.048Z,14.08
2017-10-15T06:32:12.063Z,14.03
2017-10-15T06:33:12.082Z,14.03
2017-10-15T06:34:12.115Z,14.14
2017-10-15T06:35:12.450Z,14.17
2017-10-15T06:36:12.200Z,14.17
2017-10-15T06:37:12.167Z,14.23
2017-10-15T06:38:12.186Z,14.32
2017-10-15T06:39:12.295Z,14.3
2017-10-15T06:40:12.226Z,14.3
2017-10-15T06:41:12.579Z,14.44
2017-10-15T06:42:12.267Z,14.53
2017-10-15T06:43:12.289Z,14.47
2017-10-15T06:44:12.312Z,14.53
2017-10-15T06:45:12.351Z,14.58
2017-10-15T06:46:12.352Z,14.5
2017-10-15T06:47:12.373Z,14.59
2017-10-15T06:48:12.396Z,14.59
2017-10-15T06:49:12.856Z,14.63
2017-10-15T06:50:12.441Z,14.72
2017-10-15T06:51:12.460Z,14.7
2017-10-15T06:52:12.479Z,14.78
2017-10-15T06:53:12.823Z,14.77
2017-10-15T06:54:12.522Z,14.82
2017-10-15T06:55:12.546Z,14.82
2017-10-15T06:56:12.575Z,14.72
2017-10-15T06:57:12.587Z,14.89
2017-10-15T06:58:12.614Z,14.89
2017-10-15T06:59:12.720Z,14.88
2017-10-15T07:00:12.654Z,14.84
2017-10-15T07:01:12.670Z,14.91
2017-10-15T07:02:12.688Z,14.96
2017-10-15T07:03:12.720Z,14.92
2017-10-15T07:04:12.731Z,15.06
2017-10-15T07:05:12.790Z,15.09
2017-10-15T07:06:12.769Z,15.1
2017-10-15T07:07:12.799Z,15.17
2017-10-15T07:08:12.820Z,15.14
2017-10-15T07:09:12.901Z,15.09
2017-10-15T07:10:12.852Z,15.25
2017-10-15T07:11:12.878Z,15.24
2017-10-15T07:12:12.902Z,15.22
2017-10-15T07:13:12.944Z,15.35
2017-10-15T07:14:12.935Z,15.4
2017-10-15T07:15:13.283Z,15.43
2017-10-15T07:16:12.981Z,15.52
2017-10-15T07:17:13.335Z,15.36
2017-10-15T07:18:13.352Z,15.33
2017-10-15T07:19:13.371Z,15.35
2017-10-15T07:20:13.067Z,15.33
2017-10-15T07:21:13.085Z,15.37
2017-10-15T07:22:13.117Z,15.52
2017-10-15T07:23:13.127Z,15.35
2017-10-15T07:24:13.144Z,15.33
2017-10-15T07:25:13.169Z,15.55
2017-10-15T07:26:13.238Z,15.57
2017-10-15T07:27:13.216Z,15.68
2017-10-15T07:28:13.239Z,15.65
2017-10-15T07:29:13.254Z,15.8
2017-10-15T07:30:13.284Z,15.97
2017-10-15T07:31:13.295Z,15.97
2017-10-15T07:32:13.318Z,16.12
2017-10-15T07:33:13.343Z,16.1
2017-10-15T07:34:13.363Z,16.15
2017-10-15T07:35:13.399Z,16.17
2017-10-15T07:36:13.406Z,16.24
2017-10-15T07:37:13.423Z,16.29
2017-10-15T07:38:13.442Z,16.42
2017-10-15T07:39:13.466Z,16.42
2017-10-15T07:40:13.491Z,16.57
2017-10-15T07:41:13.520Z,16.54
2017-10-15T07:42:13.531Z,16.56
2017-10-15T07:43:13.549Z,16.54
2017-10-15T07:44:13.575Z,16.51
2017-10-15T07:45:13.602Z,16.58
2017-10-15T07:46:13.616Z,16.65
2017-10-15T07:47:13.644Z,16.75
2017-10-15T07:48:13.995Z,16.74
2017-10-15T07:49:13.684Z,16.66
2017-10-15T07:50:14.026Z,16.68
2017-10-15T07:51:13.727Z,16.75
2017-10-15T07:52:13.751Z,16.86
2017-10-15T07:53:13.784Z,16.9
2017-10-15T07:54:13.793Z,16.93
2017-10-15T07:55:13.813Z,16.9
2017-10-15T07:56:13.835Z,16.94
2017-10-15T07:57:13.865Z,17.06
2017-10-15T07:58:13.930Z,17.06
2017-10-15T07:59:13.906Z,17.15
2017-10-15T08:00:13.936Z,17.24
2017-10-15T08:01:13.954Z,17.33
2017-10-15T08:02:13.975Z,17.34
2017-10-15T08:03:13.998Z,17.3
2017-10-15T08:04:14.017Z,17.39
2017-10-15T08:05:14.039Z,17.45
2017-10-15T08:06:14.064Z,17.51
2017-10-15T08:07:14.086Z,17.52
2017-10-15T08:08:14.108Z,17.79
2017-10-15T08:09:14.135Z,17.72
2017-10-15T08:10:14.163Z,17.76
2017-10-15T08:11:14.174Z,17.83
2017-10-15T08:12:14.194Z,17.85
2017-10-15T08:13:14.278Z,17.94
2017-10-15T08:14:14.250Z,18
2017-10-15T08:15:14.265Z,18.1
2017-10-15T08:16:14.286Z,18.19
2017-10-15T08:17:14.312Z,18.2
2017-10-15T08:18:14.337Z,18.19
2017-10-15T08:19:14.681Z,18.33
2017-10-15T08:20:14.376Z,18.4
2017-10-15T08:21:14.412Z,18.44
2017-10-15T08:22:14.451Z,18.58
2017-10-15T08:23:14.698Z,18.65
2017-10-15T08:24:14.611Z,18.7
2017-10-15T08:25:14.533Z,18.74
2017-10-15T08:26:14.584Z,18.74
2017-10-15T08:27:14.545Z,18.77
2017-10-15T08:28:14.624Z,18.83
2017-10-15T08:29:14.602Z,18.98
2017-10-15T08:30:14.606Z,18.93
2017-10-15T08:31:14.755Z,19.02
2017-10-15T08:32:14.660Z,19.11
2017-10-15T08:33:14.676Z,19.14
2017-10-15T08:34:14.700Z,19.16
2017-10-15T08:35:14.739Z,19.09
2017-10-15T08:36:14.745Z,19.09
2017-10-15T08:37:14.852Z,19.21
2017-10-15T08:38:15.131Z,19.18
2017-10-15T08:39:14.820Z,19.19
2017-10-15T08:40:15.166Z,19.3
2017-10-15T08:41:14.869Z,19.45
2017-10-15T08:42:14.894Z,19.55
2017-10-15T08:43:15.243Z,19.7
2017-10-15T08:44:14.937Z,19.64
2017-10-15T08:45:14.986Z,19.56
2017-10-15T08:46:15.115Z,19.66
2017-10-15T08:47:15.231Z,19.69
2017-10-15T08:48:15.031Z,19.7
2017-10-15T08:49:15.056Z,19.71
2017-10-15T08:50:15.101Z,19.62
2017-10-15T08:51:15.113Z,19.74
2017-10-15T08:52:15.127Z,19.77
2017-10-15T08:53:15.168Z,19.89
2017-10-15T08:54:15.184Z,19.95
2017-10-15T08:55:15.615Z,19.86
2017-10-15T08:56:15.234Z,20.03
2017-10-15T08:57:15.572Z,20.04
2017-10-15T08:58:15.269Z,20.26
2017-10-15T08:59:15.318Z,20.29
2017-10-15T09:00:15.643Z,20.36
2017-10-15T09:01:15.568Z,20.31
2017-10-15T09:02:15.501Z,20.29
2017-10-15T09:03:16.187Z,20.24
2017-10-15T09:04:15.532Z,20.25
2017-10-15T09:05:15.495Z,20.24
2017-10-15T09:06:15.479Z,20.26
2017-10-15T09:07:15.538Z,20.22
2017-10-15T09:08:15.579Z,20.21
2017-10-15T09:09:15.547Z,20.16
2017-10-15T09:10:15.654Z,20.31
2017-10-15T09:11:15.621Z,20.18
2017-10-15T09:12:15.673Z,20.21
2017-10-15T09:13:15.699Z,20.29
2017-10-15T09:14:15.705Z,20.29
2017-10-15T09:15:15.783Z,20.32
2017-10-15T09:16:15.741Z,20.4
2017-10-15T09:17:15.898Z,20.44
2017-10-15T09:18:15.825Z,20.4
2017-10-15T09:19:15.799Z,20.59
2017-10-15T09:20:15.874Z,20.55
2017-10-15T09:21:16.237Z,20.52
2017-10-15T09:22:16.243Z,20.39
2017-10-15T09:23:15.923Z,20.51
2017-10-15T09:24:15.950Z,20.65
2017-10-15T09:25:15.993Z,20.58
2017-10-15T09:26:16.045Z,20.69
2017-10-15T09:27:16.041Z,20.85
2017-10-15T09:28:16.102Z,20.85
2017-10-15T09:29:16.063Z,20.88
2017-10-15T09:30:16.106Z,20.88
2017-10-15T09:31:16.113Z,20.99
2017-10-15T09:32:16.177Z,21.15
2017-10-15T09:33:16.158Z,21.29
2017-10-15T09:34:16.378Z,21.32
2017-10-15T09:35:16.232Z,21.3
2017-10-15T09:36:16.204Z,21.58
2017-10-15T09:37:16.556Z,21.61
2017-10-15T09:38:16.255Z,21.62
2017-10-15T09:39:16.286Z,21.33
2017-10-15T09:40:16.327Z,21.39
2017-10-15T09:41:16.333Z,21.32
2017-10-15T09:42:16.357Z,21.4
2017-10-15T09:43:16.399Z,21.48
2017-10-15T09:44:16.408Z,21.5
2017-10-15T09:45:16.772Z,21.52
2017-10-15T09:46:16.477Z,21.3
2017-10-15T09:47:16.518Z,21.37
2017-10-15T09:48:16.510Z,21.62
2017-10-15T09:49:16.584Z,21.69
2017-10-15T09:50:16.557Z,21.72
2017-10-15T09:51:16.580Z,21.7
2017-10-15T09:52:16.611Z,21.76
2017-10-15T09:53:16.637Z,21.8
2017-10-15T09:54:16.681Z,21.76
2017-10-15T09:55:16.696Z,21.83
2017-10-15T09:56:16.710Z,21.8
2017-10-15T09:57:16.733Z,21.98
2017-10-15T09:58:16.765Z,22.02
2017-10-15T09:59:16.788Z,22.08
2017-10-15T10:00:16.812Z,22.22
2017-10-15T10:01:16.837Z,22.43
2017-10-15T10:02:16.872Z,22.45
2017-10-15T10:03:16.893Z,22.69
2017-10-15T10:04:16.979Z,22.84
2017-10-15T10:05:16.942Z,23.05
2017-10-15T10:06:16.977Z,23.25
2017-10-15T10:07:17.349Z,23.15
2017-10-15T10:08:17.055Z,23.27
2017-10-15T10:09:17.047Z,23.47
2017-10-15T10:10:17.438Z,23.61
2017-10-15T10:11:17.110Z,23.73
2017-10-15T10:12:17.134Z,23.92
2017-10-15T10:13:17.170Z,24.05
2017-10-15T10:14:17.531Z,24.5
2017-10-15T10:15:17.220Z,24.81
2017-10-15T10:16:17.580Z,25.1
2017-10-15T10:17:17.281Z,25.44
2017-10-15T10:18:17.314Z,25.69
2017-10-15T10:19:17.670Z,25.91
2017-10-15T10:20:17.372Z,26.25
2017-10-15T10:21:17.461Z,26.6
2017-10-15T10:22:17.434Z,26.88
2017-10-15T10:23:17.810Z,27.21
2017-10-15T10:24:17.823Z,27.37
2017-10-15T10:25:17.855Z,27.7
2017-10-15T10:26:17.894Z,28
2017-10-15T10:27:17.931Z,28.3
2017-10-15T10:28:17.636Z,28.33
2017-10-15T10:29:17.707Z,28.29
2017-10-15T10:30:17.692Z,28.49
2017-10-15T10:31:17.715Z,28.79
2017-10-15T10:32:17.748Z,28.98
2017-10-15T10:33:18.166Z,29.2
2017-10-15T10:34:18.176Z,29.26
2017-10-15T10:35:18.198Z,29.44
2017-10-15T10:36:18.217Z,29.71
2017-10-15T10:37:17.923Z,29.75
2017-10-15T10:38:18.294Z,29.97
2017-10-15T10:39:18.322Z,30.18
2017-10-15T10:40:18.361Z,30.34
2017-10-15T10:41:18.381Z,30.57
2017-10-15T10:42:18.417Z,30.77
2017-10-15T10:43:18.126Z,30.92
2017-10-15T10:44:18.157Z,31.07
2017-10-15T10:45:18.236Z,31.24
2017-10-15T10:46:18.578Z,31.37
2017-10-15T10:47:18.267Z,31.07
2017-10-15T10:48:18.294Z,30.87
2017-10-15T10:49:18.328Z,31.27
2017-10-15T10:50:18.361Z,31.69
2017-10-15T10:51:18.388Z,32.12
2017-10-15T10:52:18.421Z,32.29
2017-10-15T10:53:18.463Z,32.58
2017-10-15T10:54:18.496Z,32.43
2017-10-15T10:55:18.537Z,32.31
2017-10-15T10:56:18.561Z,32.09
2017-10-15T10:57:18.599Z,31.99
2017-10-15T10:58:18.636Z,32
2017-10-15T10:59:18.672Z,32
2017-10-15T11:00:18.709Z,32.11
2017-10-15T11:01:18.741Z,32.43
2017-10-15T11:02:18.776Z,32.37
2017-10-15T11:03:18.815Z,32.58
2017-10-15T11:04:18.843Z,32.77
2017-10-15T11:05:19.207Z,33.02
2017-10-15T11:06:18.919Z,33.23
2017-10-15T11:07:18.953Z,33.3
2017-10-15T11:08:18.986Z,33.52
2017-10-15T11:09:19.024Z,33.61
2017-10-15T11:10:19.057Z,33.83
2017-10-15T11:11:19.416Z,34.11
2017-10-15T11:12:19.130Z,34.1
2017-10-15T11:13:19.167Z,34.29
2017-10-15T11:14:19.202Z,34.4
2017-10-15T11:15:19.237Z,34.6
2017-10-15T11:16:19.277Z,34.81
2017-10-15T11:17:19.318Z,34.96
2017-10-15T11:18:19.545Z,35.15
2017-10-15T11:19:19.398Z,35.44
2017-10-15T11:20:19.423Z,35.66
2017-10-15T11:21:19.468Z,35.9
2017-10-15T11:22:19.499Z,35.8
2017-10-15T11:23:19.539Z,35.95
2017-10-15T11:24:19.571Z,36.07
2017-10-15T11:25:19.676Z,36.02
2017-10-15T11:26:19.975Z,35.89
2017-10-15T11:27:19.680Z,36
2017-10-15T11:28:19.723Z,35.66
2017-10-15T11:29:19.763Z,35.71
2017-10-15T11:30:19.793Z,35.8
2017-10-15T11:31:20.158Z,35.64
2017-10-15T11:32:19.870Z,36
2017-10-15T11:33:19.928Z,36.14
2017-10-15T11:34:19.993Z,36.3
2017-10-15T11:35:19.985Z,36.64
2017-10-15T11:36:20.018Z,36.8
2017-10-15T11:37:20.059Z,37.02
2017-10-15T11:38:20.098Z,36.79
2017-10-15T11:39:20.132Z,36.77
2017-10-15T11:40:20.173Z,36.73
2017-10-15T11:41:20.207Z,36.58
2017-10-15T11:42:20.245Z,36.57
2017-10-15T11:43:20.630Z,36.99
2017-10-15T11:44:20.343Z,37.3
2017-10-15T11:45:20.364Z,37.56
2017-10-15T11:46:20.397Z,37.8
2017-10-15T11:47:20.443Z,38.26
2017-10-15T11:48:20.814Z,38.42
2017-10-15T11:49:20.560Z,38.71
2017-10-15T11:50:20.551Z,38.68
2017-10-15T11:51:20.588Z,38.84
2017-10-15T11:52:20.649Z,39.21
2017-10-15T11:53:20.694Z,39.26
2017-10-15T11:54:20.728Z,39.31
2017-10-15T11:55:20.740Z,39.59
2017-10-15T11:56:20.785Z,39.48
2017-10-15T11:57:22.240Z,39.86
2017-10-15T11:58:22.174Z,39.85
2017-10-15T11:59:21.841Z,40.04
2017-10-15T12:00:20.937Z,39.99
2017-10-15T12:01:21.896Z,40.08
2017-10-15T12:02:23.063Z,40.44
2017-10-15T12:03:22.928Z,40.56
2017-10-15T12:04:22.986Z,40.56
2017-10-15T12:05:21.137Z,40.63
2017-10-15T12:06:21.168Z,40.77
2017-10-15T12:07:21.212Z,40.92
2017-10-15T12:08:21.303Z,41.09
2017-10-15T12:09:21.291Z,41.16
2017-10-15T12:10:21.333Z,41.16
2017-10-15T12:11:21.374Z,41.4
2017-10-15T12:12:21.412Z,41.07
2017-10-15T12:13:21.456Z,41.33
2017-10-15T12:14:21.816Z,41.28
2017-10-15T12:15:22.194Z,41.33
2017-10-15T12:16:23.195Z,41.49
2017-10-15T12:17:21.614Z,41.88
2017-10-15T12:18:21.656Z,42.17
2017-10-15T12:19:21.697Z,42.31
2017-10-15T12:20:21.739Z,42.29
2017-10-15T12:21:21.778Z,42.04
2017-10-15T12:22:21.819Z,42.13
2017-10-15T12:23:21.855Z,42.13
2017-10-15T12:24:21.948Z,42.2
2017-10-15T12:25:21.936Z,42.06
2017-10-15T12:26:21.975Z,42.12
2017-10-15T12:27:22.024Z,41.91
2017-10-15T12:28:22.063Z,41.75
2017-10-15T12:29:22.425Z,41.77
2017-10-15T12:30:22.459Z,41.74
2017-10-15T12:31:22.181Z,41.97
2017-10-15T12:32:22.220Z,42.16
2017-10-15T12:33:22.266Z,42.25
2017-10-15T12:34:22.303Z,42.36
2017-10-15T12:35:22.342Z,42.38
2017-10-15T12:36:22.385Z,42.66
2017-10-15T12:37:22.426Z,42.62
2017-10-15T12:38:22.463Z,42.84
2017-10-15T12:39:22.504Z,42.86
2017-10-15T12:40:22.543Z,43.15
2017-10-15T12:41:22.641Z,43.08
2017-10-15T12:42:22.628Z,42.78
2017-10-15T12:43:22.671Z,42.69
2017-10-15T12:44:22.706Z,42.31
2017-10-15T12:45:22.750Z,42.24
2017-10-15T12:46:22.791Z,42.29
2017-10-15T12:47:22.833Z,42.25
2017-10-15T12:48:22.871Z,42.29
2017-10-15T12:49:22.909Z,42.47
2017-10-15T12:50:22.950Z,42.72
2017-10-15T12:51:23.321Z,42.84
2017-10-15T12:52:23.037Z,42.74
2017-10-15T12:53:23.079Z,42.82
2017-10-15T12:54:23.117Z,42.73
2017-10-15T12:55:23.480Z,42.55
2017-10-15T12:56:23.248Z,42.7